createdAt,value
2023-05-05T00:01:33.522Z,6.40
2023-05-05T00:03:44.996Z,5.53
2023-05-05T00:05:50.315Z,5.82
2023-05-05T00:07:55.525Z,4.57
2023-05-05T00:10:01.651Z,4.38
2023-05-05T00:12:09.752Z,4.40
2023-05-05T00:14:15.312Z,4.70
2023-05-05T00:16:20.636Z,4.32
2023-05-05T00:18:26.941Z,4.13
2023-05-05T00:20:34.900Z,4.10
2023-05-05T00:22:39.836Z,4.35
2023-05-05T00:24:46.865Z,4.50
2023-05-05T00:26:52.275Z,4.38
2023-05-05T00:28:57.495Z,3.95
2023-05-05T00:31:02.848Z,3.63
2023-05-05T00:33:08.166Z,4.35
2023-05-05T00:35:13.514Z,3.97
2023-05-05T00:37:24.593Z,3.70
2023-05-05T00:39:29.888Z,3.88
2023-05-05T00:41:35.869Z,3.28
2023-05-05T00:43:42.947Z,3.10
2023-05-05T00:45:48.313Z,3.60
2023-05-05T00:47:57.413Z,3.42
2023-05-05T00:50:02.872Z,3.60
2023-05-05T00:52:09.192Z,3.63
2023-05-05T00:54:16.781Z,3.65
2023-05-05T00:56:27.605Z,3.80
2023-05-05T00:58:33.149Z,3.42
2023-05-05T01:00:38.502Z,3.10
2023-05-05T01:02:44.420Z,3.97
2023-05-05T01:04:49.614Z,3.88
2023-05-05T01:07:06.702Z,3.95
2023-05-05T01:09:23.189Z,4.30
2023-05-05T01:11:38.828Z,3.72
2023-05-05T01:13:53.341Z,3.65
2023-05-05T01:16:05.474Z,3.83
2023-05-05T01:18:21.513Z,3.70
2023-05-05T01:20:33.191Z,3.40
2023-05-05T01:22:44.719Z,3.80
2023-05-05T01:25:07.341Z,3.70
2023-05-05T01:27:40.490Z,3.92
2023-05-05T01:30:03.272Z,3.72
2023-05-05T01:32:13.866Z,3.70
2023-05-05T01:34:22.599Z,3.33
2023-05-05T01:36:34.275Z,3.80
2023-05-05T01:38:47.991Z,3.53
2023-05-05T01:40:56.478Z,4.03
2023-05-05T01:43:03.899Z,3.85
2023-05-05T01:45:12.818Z,3.95
2023-05-05T01:47:26.884Z,3.90
2023-05-05T01:49:34.247Z,3.55
2023-05-05T01:51:41.413Z,4.30
2023-05-05T01:53:47.487Z,4.03
2023-05-05T01:55:53.798Z,4.45
2023-05-05T01:58:04.135Z,4.28
2023-05-05T02:00:11.886Z,4.38
2023-05-05T02:02:22.661Z,4.85
2023-05-05T02:04:31.529Z,4.43
2023-05-05T02:06:41.046Z,4.38
2023-05-05T02:08:47.977Z,5.20
2023-05-05T02:10:53.773Z,5.63
2023-05-05T02:13:01.575Z,4.10
2023-05-05T02:15:08.148Z,4.63
2023-05-05T02:17:14.892Z,4.45
2023-05-05T02:19:25.706Z,4.53
2023-05-05T02:21:31.520Z,4.20
2023-05-05T02:23:39.913Z,4.53
2023-05-05T02:25:48.948Z,5.43
2023-05-05T02:28:01.181Z,4.38
2023-05-05T02:30:11.389Z,4.83
2023-05-05T02:32:22.195Z,5.00
2023-05-05T02:34:31.393Z,5.30
2023-05-05T02:36:43.393Z,5.63
2023-05-05T02:38:52.320Z,5.00
2023-05-05T02:41:01.780Z,5.57
2023-05-05T02:43:11.366Z,6.03
2023-05-05T02:45:20.942Z,5.40
2023-05-05T02:47:31.833Z,5.45
2023-05-05T02:49:42.961Z,5.93
2023-05-05T02:51:48.204Z,6.50
2023-05-05T02:53:53.664Z,6.25
2023-05-05T02:56:05.960Z,6.82
2023-05-05T02:58:19.121Z,8.15
2023-05-05T03:02:43.590Z,7.93
2023-05-05T03:04:55.693Z,8.40
2023-05-05T03:07:06.944Z,9.45
2023-05-05T03:09:16.286Z,9.65
2023-05-05T03:11:27.257Z,10.02
2023-05-05T03:13:34.083Z,11.00
2023-05-05T03:15:46.334Z,11.02
2023-05-05T03:17:54.679Z,13.13
2023-05-05T03:20:04.102Z,14.15
2023-05-05T03:22:09.569Z,15.30
2023-05-05T03:24:20.336Z,15.27
2023-05-05T03:26:26.491Z,16.40
2023-05-05T03:28:32.860Z,16.35
2023-05-05T03:30:39.426Z,18.33
2023-05-05T03:32:44.784Z,17.48
2023-05-05T03:34:50.061Z,18.48
2023-05-05T03:36:57.633Z,19.55
2023-05-05T03:39:02.880Z,19.50
2023-05-05T03:41:08.520Z,19.70
2023-05-05T03:43:14.133Z,20.55
2023-05-05T03:45:24.593Z,22.20
2023-05-05T03:47:29.848Z,21.60
2023-05-05T03:49:36.380Z,20.60
2023-05-05T03:51:44.598Z,23.02
2023-05-05T03:53:54.938Z,23.95
2023-05-05T03:56:00.286Z,23.17
2023-05-05T03:58:06.940Z,20.90
2023-05-05T04:00:16.373Z,23.10
2023-05-05T04:02:22.542Z,22.77
2023-05-05T04:04:28.010Z,23.75
2023-05-05T04:06:33.194Z,23.48
2023-05-05T04:08:38.530Z,23.25
2023-05-05T04:10:46.463Z,22.42
2023-05-05T04:12:51.711Z,21.88
2023-05-05T04:14:59.570Z,20.27
2023-05-05T04:17:06.794Z,20.55
2023-05-05T04:19:13.389Z,19.85
2023-05-05T04:21:20.356Z,21.73
2023-05-05T04:23:25.557Z,20.25
2023-05-05T04:25:31.553Z,18.83
2023-05-05T04:27:39.589Z,18.80
2023-05-05T04:29:44.605Z,18.67
2023-05-05T04:31:50.216Z,20.13
2023-05-05T04:33:55.496Z,18.95
2023-05-05T04:36:01.552Z,18.90
2023-05-05T04:38:06.849Z,21.25
2023-05-05T04:40:13.405Z,18.42
2023-05-05T04:42:19.030Z,18.73
2023-05-05T04:44:27.269Z,19.63
2023-05-05T04:46:35.034Z,17.73
2023-05-05T04:48:40.446Z,18.48
2023-05-05T04:50:45.703Z,16.90
2023-05-05T04:52:52.539Z,16.73
2023-05-05T04:54:58.442Z,18.23
2023-05-05T04:57:04.397Z,17.95
2023-05-05T04:59:09.626Z,17.92
2023-05-05T05:01:17.466Z,16.70
2023-05-05T05:03:22.542Z,17.33
2023-05-05T05:05:27.703Z,17.38
2023-05-05T05:07:33.077Z,17.63
2023-05-05T05:09:38.673Z,19.27
2023-05-05T05:11:43.820Z,16.02
2023-05-05T05:13:49.256Z,17.45
2023-05-05T05:15:57.738Z,15.02
2023-05-05T05:18:06.285Z,16.67
2023-05-05T05:20:12.290Z,17.58
2023-05-05T05:22:17.683Z,17.70
2023-05-05T05:24:23.312Z,17.67
2023-05-05T05:26:28.758Z,18.38
2023-05-05T05:28:34.042Z,19.58
2023-05-05T05:30:39.333Z,17.52
2023-05-05T05:32:44.311Z,19.08
2023-05-05T05:34:52.088Z,19.58
2023-05-05T05:36:57.194Z,17.88
2023-05-05T05:39:03.059Z,19.95
2023-05-05T05:41:14.552Z,19.75
2023-05-05T05:43:19.931Z,18.05
2023-05-05T05:45:25.016Z,18.75
2023-05-05T05:47:30.182Z,19.08
2023-05-05T05:49:36.913Z,19.27
2023-05-05T05:51:44.749Z,18.23
2023-05-05T05:53:49.973Z,17.70
2023-05-05T05:55:55.182Z,18.83
2023-05-05T05:58:01.298Z,18.95
2023-05-05T06:00:07.406Z,20.10
2023-05-05T06:02:12.712Z,18.48
2023-05-05T06:04:17.959Z,18.25
2023-05-05T06:06:23.371Z,19.73
2023-05-05T06:08:31.411Z,19.05
2023-05-05T06:10:37.105Z,18.98
2023-05-05T06:12:42.323Z,18.77
2023-05-05T06:14:47.680Z,19.27
2023-05-05T06:16:55.537Z,19.77
2023-05-05T06:19:01.246Z,22.40
2023-05-05T06:21:06.444Z,20.17
2023-05-05T06:23:11.587Z,18.58
2023-05-05T06:25:19.974Z,20.10
2023-05-05T06:27:25.044Z,20.45
2023-05-05T06:29:30.258Z,20.83
2023-05-05T06:31:38.602Z,18.92
2023-05-05T06:33:43.779Z,18.27
2023-05-05T06:35:49.777Z,19.08
2023-05-05T06:37:55.079Z,17.38
2023-05-05T06:40:00.241Z,17.98
2023-05-05T06:42:13.797Z,17.45
2023-05-05T06:44:19.146Z,17.20
2023-05-05T06:46:24.400Z,17.83
2023-05-05T06:48:29.805Z,18.15
2023-05-05T06:50:37.948Z,17.67
2023-05-05T06:52:43.028Z,16.48
2023-05-05T06:54:48.072Z,18.10
2023-05-05T06:56:53.830Z,15.82
2023-05-05T06:59:01.816Z,14.95
2023-05-05T07:01:07.336Z,13.73
2023-05-05T07:03:12.810Z,12.45
2023-05-05T07:05:17.962Z,11.18
2023-05-05T07:07:23.667Z,11.25
2023-05-05T07:09:31.669Z,12.60
2023-05-05T07:11:38.507Z,11.25
2023-05-05T07:13:43.713Z,11.93
2023-05-05T07:15:51.592Z,12.43
2023-05-05T07:17:57.389Z,11.05
2023-05-05T07:20:03.833Z,11.30
2023-05-05T07:22:09.075Z,10.57
2023-05-05T07:24:14.295Z,10.25
2023-05-05T07:26:19.733Z,11.27
2023-05-05T07:28:25.265Z,10.52
2023-05-05T07:30:31.343Z,10.73
2023-05-05T07:32:39.672Z,9.15
2023-05-05T07:34:45.007Z,10.50
2023-05-05T07:36:50.386Z,10.00
2023-05-05T07:38:55.830Z,10.45
2023-05-05T07:41:01.387Z,11.55
2023-05-05T07:43:07.068Z,9.98
2023-05-05T07:45:12.885Z,8.25
2023-05-05T07:47:18.285Z,9.23
2023-05-05T07:49:27.154Z,9.55
2023-05-05T07:51:34.500Z,10.35
2023-05-05T07:53:40.423Z,11.40
2023-05-05T07:55:45.847Z,10.02
2023-05-05T07:57:51.282Z,10.32
2023-05-05T07:59:57.022Z,10.80
2023-05-05T08:02:02.691Z,9.32
2023-05-05T08:04:08.618Z,9.25
2023-05-05T08:06:22.394Z,10.07
2023-05-05T08:08:27.846Z,8.82
2023-05-05T08:10:34.005Z,8.75
2023-05-05T08:12:39.754Z,8.45
2023-05-05T08:14:45.670Z,6.88
2023-05-05T08:16:51.218Z,6.65
2023-05-05T08:18:56.666Z,6.82
2023-05-05T08:21:02.389Z,6.68
2023-05-05T08:23:10.132Z,6.45
2023-05-05T08:25:16.216Z,6.18
2023-05-05T08:27:27.519Z,5.30
2023-05-05T08:29:33.086Z,5.82
2023-05-05T08:31:39.977Z,5.68
2023-05-05T08:33:45.512Z,5.07
2023-05-05T08:35:52.362Z,5.38
2023-05-05T08:37:59.131Z,5.13
2023-05-05T08:40:09.236Z,6.22
2023-05-05T08:42:25.455Z,5.82
2023-05-05T08:44:38.289Z,6.22
2023-05-05T08:46:45.978Z,6.40
2023-05-05T08:48:52.046Z,5.38
2023-05-05T08:51:03.325Z,4.40
2023-05-05T08:55:27.827Z,3.53
2023-05-05T08:57:42.785Z,3.58
2023-05-05T08:59:48.227Z,3.10
2023-05-05T09:01:54.711Z,2.58
2023-05-05T09:04:02.280Z,3.10
2023-05-05T09:06:08.072Z,3.05
2023-05-05T09:08:14.014Z,3.13
2023-05-05T09:10:19.248Z,2.90
2023-05-05T09:12:26.915Z,2.80
2023-05-05T09:14:32.878Z,3.05
2023-05-05T09:16:38.709Z,3.13
2023-05-05T09:18:45.735Z,2.58
2023-05-05T09:20:50.767Z,2.05
2023-05-05T09:22:58.461Z,2.35
2023-05-05T09:25:03.649Z,2.38
2023-05-05T09:27:27.205Z,3.75
2023-05-05T09:29:32.968Z,2.30
2023-05-05T09:31:39.416Z,2.33
2023-05-05T09:33:44.557Z,3.15
2023-05-05T09:35:54.401Z,2.65
2023-05-05T09:38:00.126Z,2.33
2023-05-05T09:40:05.545Z,3.25
2023-05-05T09:42:20.842Z,2.30
2023-05-05T09:44:40.330Z,2.55
2023-05-05T09:46:55.449Z,2.22
2023-05-05T09:49:14.411Z,2.50
2023-05-05T09:51:19.428Z,2.10
2023-05-05T09:53:24.649Z,2.70
2023-05-05T09:55:29.602Z,3.22
2023-05-05T09:57:37.059Z,2.80
2023-05-05T09:59:57.904Z,2.78
2023-05-05T10:02:14.983Z,2.75
2023-05-05T10:04:31.360Z,2.85
2023-05-05T10:06:47.649Z,2.70
2023-05-05T10:09:04.253Z,2.88
2023-05-05T10:11:09.667Z,3.38
2023-05-05T10:13:14.716Z,3.42
2023-05-05T10:15:22.752Z,4.10
2023-05-05T10:17:31.826Z,6.28
2023-05-05T10:19:39.035Z,4.68
2023-05-05T10:21:48.941Z,4.70
2023-05-05T10:24:01.477Z,4.70
2023-05-05T10:26:10.816Z,5.22
2023-05-05T10:28:23.441Z,4.28
2023-05-05T10:30:33.763Z,4.50
2023-05-05T10:32:59.874Z,4.03
2023-05-05T10:35:12.812Z,3.65
2023-05-05T10:37:19.905Z,4.50
2023-05-05T10:39:26.720Z,6.47
2023-05-05T10:41:32.948Z,5.85
2023-05-05T10:43:40.549Z,6.10
2023-05-05T10:45:48.863Z,6.03
2023-05-05T10:47:55.263Z,5.68
2023-05-05T10:50:07.248Z,6.63
2023-05-05T10:52:23.932Z,5.67
2023-05-05T10:54:37.159Z,5.13
2023-05-05T10:56:45.227Z,6.60
2023-05-05T10:58:59.595Z,5.43
2023-05-05T11:01:09.674Z,5.15
2023-05-05T11:03:25.264Z,5.60
2023-05-05T11:05:31.268Z,5.20
2023-05-05T11:07:38.395Z,6.28
2023-05-05T11:09:58.115Z,6.35
2023-05-05T11:12:10.819Z,6.45
2023-05-05T11:14:24.965Z,8.50
2023-05-05T11:16:50.782Z,7.68
2023-05-05T11:18:56.533Z,7.03
2023-05-05T11:21:18.768Z,7.13
2023-05-05T11:23:27.087Z,6.10
2023-05-05T11:25:51.645Z,6.35
2023-05-05T11:28:09.039Z,5.75
2023-05-05T11:30:15.696Z,5.85
2023-05-05T11:32:23.376Z,5.78
2023-05-05T11:34:31.365Z,5.85
2023-05-05T11:36:46.513Z,5.13
2023-05-05T11:39:10.154Z,5.10
2023-05-05T11:41:16.877Z,5.40
2023-05-05T11:43:22.322Z,4.65
2023-05-05T11:45:27.677Z,4.63
2023-05-05T11:47:38.214Z,4.70
2023-05-05T11:49:43.516Z,5.32
2023-05-05T11:51:59.270Z,4.32
2023-05-05T11:54:04.181Z,4.22
2023-05-05T11:56:13.073Z,5.35
2023-05-05T11:58:24.880Z,4.25
2023-05-05T12:00:36.905Z,4.95
2023-05-05T12:02:44.573Z,4.07
2023-05-05T12:04:50.032Z,4.60
2023-05-05T12:06:55.570Z,5.30
2023-05-05T12:09:01.415Z,5.50
2023-05-05T12:11:07.058Z,6.10
2023-05-05T12:13:21.535Z,6.60
2023-05-05T12:15:34.027Z,6.68
2023-05-05T12:17:48.503Z,5.47
2023-05-05T12:19:55.989Z,5.93
2023-05-05T12:22:01.394Z,5.70
2023-05-05T12:24:06.537Z,4.85
2023-05-05T12:26:26.832Z,4.80
2023-05-05T12:28:46.793Z,5.03
2023-05-05T12:30:59.782Z,4.70
2023-05-05T12:33:08.814Z,4.05
2023-05-05T12:35:16.303Z,4.35
2023-05-05T12:37:22.147Z,4.25
2023-05-05T12:39:37.185Z,4.03
2023-05-05T12:41:42.413Z,4.13
2023-05-05T12:43:47.728Z,3.75
2023-05-05T12:46:02.940Z,3.35
2023-05-05T12:48:31.731Z,3.97
2023-05-05T12:50:38.013Z,3.40
2023-05-05T12:52:45.441Z,4.20
2023-05-05T12:54:57.774Z,4.45
2023-05-05T12:57:14.412Z,4.25
2023-05-05T12:59:33.134Z,3.70
2023-05-05T13:01:39.377Z,4.25
2023-05-05T13:03:46.974Z,3.95
2023-05-05T13:05:52.193Z,4.43
2023-05-05T13:07:57.598Z,4.32
2023-05-05T13:10:11.153Z,4.72
2023-05-05T13:12:16.689Z,4.57
2023-05-05T13:14:23.300Z,4.70
2023-05-05T13:16:28.693Z,5.43
2023-05-05T13:18:33.478Z,4.43
2023-05-05T13:20:44.139Z,4.57
2023-05-05T13:22:49.005Z,5.45
2023-05-05T13:24:53.877Z,5.22
2023-05-05T13:26:58.920Z,5.50
2023-05-05T13:29:03.999Z,5.35
2023-05-05T13:31:09.631Z,4.65
2023-05-05T13:33:14.506Z,4.80
2023-05-05T13:35:19.435Z,4.72
2023-05-05T13:37:27.236Z,4.78
2023-05-05T13:39:32.909Z,4.22
2023-05-05T13:41:40.523Z,3.97
2023-05-05T13:43:45.345Z,4.00
2023-05-05T13:45:50.580Z,3.63
2023-05-05T13:47:55.529Z,4.05
2023-05-05T13:50:01.590Z,3.85
2023-05-05T13:52:07.148Z,3.55
2023-05-05T13:54:14.717Z,3.63
2023-05-05T13:56:20.162Z,4.50
2023-05-05T13:58:25.207Z,4.57
2023-05-05T14:00:31.364Z,3.25
2023-05-05T14:02:36.473Z,4.00
2023-05-05T14:04:44.334Z,3.33
2023-05-05T14:06:49.274Z,3.78
2023-05-05T14:08:54.533Z,3.72
2023-05-05T14:11:03.716Z,3.70
2023-05-05T14:13:08.638Z,4.13
2023-05-05T14:15:14.074Z,4.57
2023-05-05T14:17:18.918Z,3.60
2023-05-05T14:19:23.919Z,3.55
2023-05-05T14:21:29.003Z,3.20
2023-05-05T14:23:34.037Z,4.10
2023-05-05T14:25:38.818Z,3.42
2023-05-05T14:27:46.290Z,3.83
2023-05-05T14:29:51.272Z,3.33
2023-05-05T14:31:56.288Z,4.65
2023-05-05T14:34:01.669Z,3.60
2023-05-05T14:36:07.139Z,3.88
2023-05-05T14:38:12.204Z,4.13
2023-05-05T14:40:17.197Z,4.50
2023-05-05T14:42:22.342Z,4.75
2023-05-05T14:44:29.886Z,4.50
2023-05-05T14:46:36.690Z,4.50
2023-05-05T14:48:42.242Z,4.10
2023-05-05T14:50:47.241Z,4.50
2023-05-05T14:52:52.278Z,4.55
2023-05-05T14:54:57.621Z,5.68
2023-05-05T14:57:02.786Z,5.30
2023-05-05T14:59:08.243Z,5.00
2023-05-05T15:01:18.727Z,5.18
2023-05-05T15:03:23.987Z,4.80
2023-05-05T15:05:29.144Z,5.63
2023-05-05T15:07:34.156Z,5.18
2023-05-05T15:09:39.179Z,6.00
2023-05-05T15:11:45.484Z,4.63
2023-05-05T15:13:50.382Z,5.57
2023-05-05T15:15:55.542Z,5.13
2023-05-05T15:18:03.326Z,5.28
2023-05-05T15:20:10.414Z,5.15
2023-05-05T15:22:15.491Z,5.60
2023-05-05T15:24:20.460Z,5.47
2023-05-05T15:26:26.105Z,6.07
2023-05-05T15:28:31.848Z,5.95
2023-05-05T15:30:37.317Z,5.57
2023-05-05T15:32:42.873Z,5.30
2023-05-05T15:34:50.716Z,5.03
2023-05-05T15:36:56.393Z,5.80
2023-05-05T15:39:01.583Z,5.03
2023-05-05T15:41:06.901Z,8.05
2023-05-05T15:43:12.328Z,7.80
2023-05-05T15:45:17.618Z,9.65
2023-05-05T15:47:22.708Z,11.43
2023-05-05T15:49:31.461Z,8.75
2023-05-05T15:51:39.430Z,8.23
2023-05-05T15:53:44.534Z,9.27
2023-05-05T15:55:49.552Z,8.93
2023-05-05T15:57:54.916Z,9.80
2023-05-05T15:59:59.949Z,8.27
2023-05-05T16:02:06.093Z,8.63
2023-05-05T16:04:11.915Z,9.65
2023-05-05T16:06:17.010Z,8.68
2023-05-05T16:08:28.080Z,10.98
2023-05-05T16:10:33.094Z,11.50
2023-05-05T16:12:38.704Z,11.00
2023-05-05T16:14:44.709Z,10.25
2023-05-05T16:16:49.975Z,9.02
2023-05-05T16:18:55.201Z,8.80
2023-05-05T16:21:01.210Z,11.95
2023-05-05T16:23:06.256Z,10.43
2023-05-05T16:25:17.755Z,9.60
2023-05-05T16:27:23.506Z,14.88
2023-05-05T16:29:32.263Z,10.27
2023-05-05T16:31:40.593Z,11.48
2023-05-05T16:33:46.144Z,9.15
2023-05-05T16:35:51.249Z,8.82
2023-05-05T16:37:56.975Z,10.00
2023-05-05T16:40:04.554Z,9.18
2023-05-05T16:44:21.054Z,10.07
2023-05-05T16:46:29.249Z,10.20
2023-05-05T16:48:35.440Z,10.63
2023-05-05T16:50:40.953Z,9.93
2023-05-05T16:52:46.349Z,9.13
2023-05-05T16:54:55.827Z,10.52
2023-05-05T16:57:03.349Z,8.98
2023-05-05T16:59:15.922Z,10.43
2023-05-05T17:01:21.054Z,10.25
2023-05-05T17:03:26.761Z,10.40
2023-05-05T17:05:33.200Z,10.40
2023-05-05T17:07:40.959Z,10.77
2023-05-05T17:09:46.158Z,11.80
2023-05-05T17:11:53.306Z,12.52
2023-05-05T17:13:58.353Z,10.40
2023-05-05T17:16:08.784Z,9.55
2023-05-05T17:18:13.756Z,9.45
2023-05-05T17:20:18.957Z,8.57
2023-05-05T17:22:24.117Z,8.25
2023-05-05T17:24:29.214Z,7.80
2023-05-05T17:26:34.667Z,7.38
2023-05-05T17:28:39.726Z,7.35
2023-05-05T17:30:44.938Z,7.18
2023-05-05T17:32:53.294Z,8.13
2023-05-05T17:34:59.132Z,7.25
2023-05-05T17:37:04.183Z,7.30
2023-05-05T17:39:10.803Z,7.45
2023-05-05T17:41:16.891Z,7.55
2023-05-05T17:43:22.290Z,8.52
2023-05-05T17:45:27.237Z,7.50
2023-05-05T17:47:33.403Z,8.48
2023-05-05T17:49:44.450Z,7.57
2023-05-05T17:51:49.806Z,8.40
2023-05-05T17:53:54.953Z,7.85
2023-05-05T17:55:59.986Z,9.20
2023-05-05T17:58:05.736Z,7.57
2023-05-05T18:00:12.829Z,7.78
2023-05-05T18:02:19.338Z,7.53
2023-05-05T18:04:25.956Z,7.65
2023-05-05T18:06:33.823Z,7.88
2023-05-05T18:08:38.958Z,8.07
2023-05-05T18:10:44.206Z,7.68
2023-05-05T18:12:49.231Z,8.70
2023-05-05T18:14:54.527Z,7.53
2023-05-05T18:16:59.508Z,9.00
2023-05-05T18:19:04.747Z,7.65
2023-05-05T18:21:12.420Z,8.55
2023-05-05T18:23:20.146Z,7.82
2023-05-05T18:25:28.244Z,7.65
2023-05-05T18:27:36.389Z,7.97
2023-05-05T18:29:44.442Z,8.25
2023-05-05T18:31:53.419Z,7.38
2023-05-05T18:33:58.744Z,8.13
2023-05-05T18:36:06.202Z,7.53
2023-05-05T18:38:13.225Z,8.70
2023-05-05T18:40:21.829Z,7.60
2023-05-05T18:42:27.135Z,9.52
2023-05-05T18:44:32.997Z,7.78
2023-05-05T18:46:40.307Z,8.88
2023-05-05T18:48:45.631Z,7.80
2023-05-05T18:50:51.741Z,7.53
2023-05-05T18:52:56.710Z,8.20
2023-05-05T18:55:03.154Z,8.27
2023-05-05T18:57:10.850Z,8.48
2023-05-05T18:59:15.662Z,9.10
2023-05-05T19:01:20.556Z,9.50
2023-05-05T19:03:25.960Z,7.97
2023-05-05T19:05:31.628Z,8.25
2023-05-05T19:07:37.040Z,8.60
2023-05-05T19:09:42.066Z,8.73
2023-05-05T19:11:47.136Z,7.82
2023-05-05T19:13:54.722Z,8.02
2023-05-05T19:15:59.779Z,9.25
2023-05-05T19:18:06.593Z,8.85
2023-05-05T19:20:13.268Z,7.18
2023-05-05T19:22:20.952Z,8.35
2023-05-05T19:24:35.793Z,8.68
2023-05-05T19:26:44.423Z,8.15
2023-05-05T19:28:49.337Z,7.68
2023-05-05T19:30:56.838Z,8.60
2023-05-05T19:33:02.814Z,8.35
2023-05-05T19:35:10.779Z,8.48
2023-05-05T19:37:16.119Z,8.70
2023-05-05T19:39:21.302Z,9.07
2023-05-05T19:41:26.490Z,8.32
2023-05-05T19:43:31.661Z,8.07
2023-05-05T19:45:37.094Z,9.40
2023-05-05T19:47:44.691Z,9.32
2023-05-05T19:49:49.793Z,8.73
2023-05-05T19:51:54.964Z,8.68
2023-05-05T19:53:59.852Z,9.55
2023-05-05T19:56:05.847Z,9.60
2023-05-05T19:58:10.981Z,9.60
2023-05-05T20:00:18.704Z,8.73
2023-05-05T20:02:26.833Z,9.32
2023-05-05T20:04:35.683Z,10.50
2023-05-05T20:06:43.691Z,9.57
2023-05-05T20:08:48.705Z,10.82
2023-05-05T20:10:53.710Z,10.07
2023-05-05T20:12:58.746Z,9.85
2023-05-05T20:15:03.664Z,9.48
2023-05-05T20:17:09.019Z,10.52
2023-05-05T20:19:14.060Z,9.20
2023-05-05T20:21:23.190Z,9.15
2023-05-05T20:23:28.211Z,10.27
2023-05-05T20:25:33.749Z,10.52
2023-05-05T20:27:38.758Z,9.75
2023-05-05T20:29:43.616Z,11.65
2023-05-05T20:31:48.680Z,9.85
2023-05-05T20:33:53.559Z,9.55
2023-05-05T20:35:58.699Z,9.60
2023-05-05T20:38:07.317Z,10.63
2023-05-05T20:40:13.523Z,10.35
2023-05-05T20:42:19.024Z,10.15
2023-05-05T20:44:24.112Z,10.00
2023-05-05T20:46:29.277Z,9.23
2023-05-05T20:48:34.353Z,10.43
2023-05-05T20:50:42.982Z,10.07
2023-05-05T20:52:48.294Z,9.48
2023-05-05T20:54:56.475Z,9.73
2023-05-05T20:57:02.426Z,9.82
2023-05-05T20:59:07.693Z,10.20
2023-05-05T21:01:12.742Z,10.25
2023-05-05T21:03:17.891Z,9.63
2023-05-05T21:05:23.333Z,10.30
2023-05-05T21:07:31.402Z,10.57
2023-05-05T21:09:40.383Z,10.25
2023-05-05T21:11:47.885Z,11.50
2023-05-05T21:13:55.488Z,10.73
2023-05-05T21:16:03.700Z,11.25
2023-05-05T21:18:09.868Z,10.57
2023-05-05T21:20:16.662Z,11.68
2023-05-05T21:22:22.038Z,10.48
2023-05-05T21:24:28.269Z,10.80
2023-05-05T21:26:34.175Z,10.63
2023-05-05T21:28:41.861Z,11.35
2023-05-05T21:30:54.809Z,10.73
2023-05-05T21:33:10.008Z,12.50
2023-05-05T21:35:15.016Z,12.55
2023-05-05T21:37:19.931Z,12.63
2023-05-05T21:39:24.941Z,12.52
2023-05-05T21:41:30.272Z,13.70
2023-05-05T21:43:35.261Z,13.68
2023-05-05T21:45:42.919Z,13.07
2023-05-05T21:47:47.948Z,13.95
2023-05-05T21:49:54.825Z,12.57
2023-05-05T21:51:59.714Z,13.38
2023-05-05T21:54:04.731Z,13.77
2023-05-05T21:56:10.458Z,13.40
2023-05-05T21:58:15.593Z,12.93
2023-05-05T22:00:20.667Z,13.55
2023-05-05T22:02:28.458Z,13.80
2023-05-05T22:04:34.374Z,14.82
2023-05-05T22:06:39.420Z,13.77
2023-05-05T22:08:45.012Z,13.45
2023-05-05T22:10:49.936Z,13.77
2023-05-05T22:12:55.038Z,13.63
2023-05-05T22:15:00.153Z,12.65
2023-05-05T22:17:05.073Z,15.65
2023-05-05T22:19:12.782Z,14.07
2023-05-05T22:21:17.659Z,13.10
2023-05-05T22:23:22.492Z,14.00
2023-05-05T22:25:27.374Z,13.00
2023-05-05T22:27:32.187Z,15.02
2023-05-05T22:29:38.218Z,13.73
2023-05-05T22:31:43.218Z,15.13
2023-05-05T22:33:48.131Z,15.18
2023-05-05T22:35:55.620Z,15.02
2023-05-05T22:38:01.657Z,13.93
2023-05-05T22:40:09.854Z,14.73
2023-05-05T22:42:15.223Z,15.80
2023-05-05T22:44:20.224Z,14.75
2023-05-05T22:46:25.818Z,14.57
2023-05-05T22:48:31.660Z,14.40
2023-05-05T22:50:36.717Z,14.25
2023-05-05T22:52:46.514Z,13.52
2023-05-05T22:54:52.058Z,15.15
2023-05-05T22:56:57.019Z,15.40
2023-05-05T22:59:01.863Z,14.40
2023-05-05T23:01:07.745Z,16.08
2023-05-05T23:03:13.031Z,15.75
2023-05-05T23:05:18.105Z,15.32
2023-05-05T23:07:24.355Z,16.58
2023-05-05T23:09:31.941Z,14.57
2023-05-05T23:11:38.839Z,16.75
2023-05-05T23:13:44.016Z,15.27
2023-05-05T23:15:49.140Z,18.27
2023-05-05T23:17:54.185Z,16.60
2023-05-05T23:19:59.152Z,16.08
2023-05-05T23:22:05.481Z,15.02
2023-05-05T23:24:10.661Z,16.45
2023-05-05T23:26:18.929Z,15.02
2023-05-05T23:28:23.950Z,18.58
2023-05-05T23:30:29.927Z,17.23
2023-05-05T23:32:35.246Z,16.60
2023-05-05T23:34:42.404Z,15.95
2023-05-05T23:36:47.412Z,17.70
2023-05-05T23:38:52.688Z,16.42
2023-05-05T23:40:57.950Z,16.20
2023-05-05T23:43:05.610Z,15.57
2023-05-05T23:45:12.723Z,17.75
2023-05-05T23:47:18.002Z,16.38
2023-05-05T23:49:24.227Z,17.15
2023-05-05T23:51:30.102Z,17.00
2023-05-05T23:53:35.895Z,15.93
2023-05-05T23:55:42.276Z,18.13
2023-05-05T23:57:47.319Z,17.45
2023-05-05T23:59:54.760Z,17.10
